Tavistock, United Kingdom
Current Conditions -  °F | °C
As of 6:20 AM on Friday 19 Dec 2014 (Local Time) from EGTE Reporting Station
Drizzle Drizzle  
Wind Chill: 52°   Ceiling: Unl
Heat Index: 52°   Visibility: 5mi
Dew Point: 50°   Wind: 12mph
Humidity: 94%   Direction: 280°W
Pressure: 29.88"   Gusts: NA
Location:  50.55°N, 4.15°W
Report Text: EGTE 190620Z 28010KT 8000 -DZ SCT009 FEW020 11/10 Q1012
Loading
Personal Weather Stations






























Interactive Weather Map New forecast layout! Learn more

10-Day Weather Forecast

Advertisements
Track Severe Weather on mobile